Main page
Satellite images 15-day forecastsClimateMarine weather Cyclones Lightning AirportsFAQ Newsletter About
Weather : Europe Africa North America South America Asia Australia-Oceania Others
Languages Contact

Dortmund, Germany

latitude: 51-31N, longitude: 007-37E, elevation: 127 m


METAR: EDLW 222150Z VRB03KT CAVOK 09/06 Q1019 RMK ATIS K
TAF: EDLW 221700Z 2218/2318 17007KT CAVOK

Time: 00:21 (23:21 UTC)

Current weather observation

The report was made 1 hour and 31 minutes ago, at 21:50 UTC
Wind 3 kt from variable directions
Temperature 9°C
Humidity 81%
Pressure 1019 hPa
Visibility 10 km or more
no clouds below 1500 m and no cumulonimbus

Change units

Forecast

The report was made 6 hours and 21 minutes ago, at 17:00 UTC
Forecast valid from 22 at 18 UTC to 23 at 18 UTC
Wind 7 kt from the South
Visibility 10 km or more
no clouds below 1500 m and no cumulonimbus
The information on this site is subject to a disclaimer
Weather : Europe Africa North America South America Asia Australia-Oceania Others
Satellite images 15-day forecastsClimateMarine weather Cyclones Lightning AirportsFAQ Languages Contact Newsletter About